createdAt,value
2022-10-21T00:00:40.749Z,55.22
2022-10-21T00:03:14.699Z,53.42
2022-10-21T00:05:41.600Z,50.22
2022-10-21T00:08:14.700Z,54.03
2022-10-21T00:10:41.850Z,56.97
2022-10-21T00:13:15.676Z,56.13
2022-10-21T00:15:42.690Z,53.38
2022-10-21T00:18:15.740Z,51.40
2022-10-21T00:20:42.839Z,51.38
2022-10-21T00:23:09.946Z,55.67
2022-10-21T00:25:44.764Z,50.00
2022-10-21T00:28:11.672Z,56.10
2022-10-21T00:30:51.788Z,53.38
2022-10-21T00:33:25.737Z,55.80
2022-10-21T00:36:08.744Z,57.60
2022-10-21T00:38:35.896Z,54.67
2022-10-21T00:41:15.753Z,54.08
2022-10-21T00:44:07.367Z,56.17
2022-10-21T00:47:07.772Z,54.45
2022-10-21T00:49:44.077Z,54.95
2022-10-21T00:52:26.727Z,55.65
2022-10-21T00:54:55.195Z,52.05
2022-10-21T00:57:28.714Z,56.63
2022-10-21T01:00:06.743Z,55.58
2022-10-21T01:02:39.717Z,63.28
2022-10-21T01:05:13.723Z,69.25
2022-10-21T01:07:47.135Z,59.10
2022-10-21T01:10:20.722Z,56.90
2022-10-21T01:13:12.559Z,56.17
2022-10-21T01:15:55.739Z,53.35
2022-10-21T01:18:49.728Z,54.30
2022-10-21T01:21:37.274Z,52.50
2022-10-21T01:25:07.837Z,54.50
2022-10-21T01:27:51.747Z,55.35
2022-10-21T01:30:35.325Z,50.80
2022-10-21T01:33:47.743Z,51.65
2022-10-21T01:36:33.387Z,52.50
2022-10-21T01:39:33.775Z,53.33
2022-10-21T01:42:39.116Z,54.60
2022-10-21T01:45:25.754Z,54.00
2022-10-21T01:48:01.736Z,53.90
2022-10-21T01:50:37.763Z,51.70
2022-10-21T01:53:09.853Z,49.92
2022-10-21T01:55:36.762Z,50.17
2022-10-21T01:58:17.796Z,49.22
2022-10-21T02:00:44.845Z,48.95
2022-10-21T02:03:20.797Z,46.67
2022-10-21T02:05:47.753Z,48.03
2022-10-21T02:08:20.807Z,52.10
2022-10-21T02:10:50.076Z,48.42
2022-10-21T02:14:00.802Z,53.85
2022-10-21T02:16:32.567Z,46.38
2022-10-21T02:18:59.874Z,44.95
2022-10-21T02:21:35.781Z,47.80
2022-10-21T02:24:39.787Z,40.42
2022-10-21T02:27:06.654Z,44.92
2022-10-21T02:29:43.806Z,48.95
2022-10-21T02:32:31.722Z,43.00
2022-10-21T02:35:35.844Z,50.00
2022-10-21T02:38:14.804Z,43.30
2022-10-21T02:40:57.775Z,50.20
2022-10-21T02:43:33.825Z,47.13
2022-10-21T02:46:11.786Z,47.55
2022-10-21T02:48:39.749Z,43.58
2022-10-21T02:51:13.766Z,46.72
2022-10-21T02:53:41.002Z,48.60
2022-10-21T02:56:14.809Z,49.33
2022-10-21T02:58:47.817Z,51.22
2022-10-21T03:01:14.819Z,49.63
2022-10-21T03:03:47.802Z,47.80
2022-10-21T03:06:14.739Z,50.45
2022-10-21T03:08:47.871Z,49.97
2022-10-21T03:11:14.845Z,55.03
2022-10-21T03:13:47.840Z,50.85
2022-10-21T03:16:14.807Z,52.65
2022-10-21T03:18:47.862Z,54.67
2022-10-21T03:21:14.757Z,55.45
2022-10-21T03:23:41.673Z,50.28
2022-10-21T03:26:14.887Z,48.15
2022-10-21T03:28:47.852Z,46.50
2022-10-21T03:31:20.855Z,52.88
2022-10-21T03:33:47.770Z,45.38
2022-10-21T03:36:20.794Z,45.30
2022-10-21T03:38:47.702Z,45.78
2022-10-21T03:41:20.880Z,51.22
2022-10-21T03:43:47.812Z,52.83
2022-10-21T03:46:20.857Z,51.25
2022-10-21T03:48:47.745Z,56.53
2022-10-21T03:51:14.629Z,58.60
2022-10-21T03:53:47.884Z,58.40
2022-10-21T03:56:14.816Z,54.08
2022-10-21T03:58:47.838Z,55.88
2022-10-21T04:01:14.851Z,53.38
2022-10-21T04:03:48.840Z,56.40
2022-10-21T04:06:21.880Z,58.50
2022-10-21T04:08:48.987Z,56.45
2022-10-21T04:11:22.883Z,54.25
2022-10-21T04:13:49.827Z,52.75
2022-10-21T04:16:25.860Z,59.28
2022-10-21T04:18:52.852Z,54.42
2022-10-21T04:21:25.876Z,55.33
2022-10-21T04:23:58.865Z,53.13
2022-10-21T04:26:25.793Z,54.33
2022-10-21T04:28:58.869Z,51.92
2022-10-21T04:31:29.797Z,49.85
2022-10-21T04:34:05.849Z,57.78
2022-10-21T04:36:38.912Z,56.38
2022-10-21T04:39:05.996Z,61.10
2022-10-21T04:41:39.903Z,55.70
2022-10-21T04:44:06.892Z,57.90
2022-10-21T04:46:39.876Z,61.40
2022-10-21T04:49:06.804Z,60.25
2022-10-21T04:51:39.916Z,63.47
2022-10-21T04:54:06.909Z,58.10
2022-10-21T04:56:40.059Z,62.58
2022-10-21T04:59:07.017Z,60.80
2022-10-21T05:01:34.280Z,62.85
2022-10-21T05:04:07.919Z,62.47
2022-10-21T05:06:34.880Z,63.13
2022-10-21T05:09:08.018Z,61.13
2022-10-21T05:11:35.076Z,59.72
2022-10-21T05:14:08.904Z,58.63
2022-10-21T05:16:35.835Z,58.08
2022-10-21T05:19:08.892Z,62.50
2022-10-21T05:24:02.608Z,55.85
2022-10-21T05:26:36.048Z,58.90
2022-10-21T05:29:09.904Z,63.22
2022-10-21T05:31:42.911Z,64.15
2022-10-21T05:34:09.793Z,60.97
2022-10-21T05:36:42.929Z,58.70
2022-10-21T05:39:09.850Z,58.08
2022-10-21T05:41:47.003Z,57.55
2022-10-21T05:44:21.957Z,62.78
2022-10-21T05:46:48.842Z,59.08
2022-10-21T05:49:21.953Z,65.70
2022-10-21T05:51:48.850Z,58.78
2022-10-21T05:54:21.933Z,62.22
2022-10-21T05:56:48.876Z,60.78
2022-10-21T05:59:22.012Z,68.60
2022-10-21T06:01:48.995Z,64.55
2022-10-21T06:04:21.972Z,60.97
2022-10-21T06:06:48.913Z,60.58
2022-10-21T06:09:21.977Z,63.28
2022-10-21T06:11:54.979Z,66.22
2022-10-21T06:14:21.879Z,58.00
2022-10-21T06:16:48.759Z,65.03
2022-10-21T06:19:21.939Z,65.75
2022-10-21T06:21:48.982Z,65.97
2022-10-21T06:24:16.071Z,69.57
2022-10-21T06:26:49.987Z,70.30
2022-10-21T06:29:23.909Z,75.82
2022-10-21T06:31:57.155Z,85.07
2022-10-21T06:34:24.232Z,86.38
2022-10-21T06:36:58.030Z,86.25
2022-10-21T06:39:25.205Z,88.40
2022-10-21T06:41:59.034Z,76.70
2022-10-21T06:44:32.697Z,80.88
2022-10-21T06:47:06.034Z,76.22
2022-10-21T06:49:36.165Z,78.35
2022-10-21T06:52:10.063Z,78.57
2022-10-21T06:54:36.971Z,74.85
2022-10-21T06:57:10.976Z,78.75
2022-10-21T06:59:37.852Z,83.15
2022-10-21T07:02:10.984Z,72.57
2022-10-21T07:04:37.892Z,72.68
2022-10-21T07:07:10.975Z,70.00
2022-10-21T07:09:44.065Z,69.30
2022-10-21T07:12:17.991Z,78.13
2022-10-21T07:14:51.010Z,72.10
2022-10-21T07:17:18.197Z,69.43
2022-10-21T07:19:45.212Z,72.00
2022-10-21T07:22:21.211Z,67.22
2022-10-21T07:24:51.644Z,73.70
2022-10-21T07:27:25.903Z,68.68
2022-10-21T07:29:52.855Z,77.47
2022-10-21T07:32:26.002Z,75.35
2022-10-21T07:34:52.917Z,79.78
2022-10-21T07:37:19.814Z,80.45
2022-10-21T07:39:53.016Z,67.13
2022-10-21T07:42:20.065Z,67.40
2022-10-21T07:44:56.030Z,69.45
2022-10-21T07:47:22.937Z,71.47
2022-10-21T07:49:56.000Z,69.05
2022-10-21T07:52:22.941Z,75.68
2022-10-21T07:54:56.007Z,69.20
2022-10-21T07:57:22.875Z,77.20
2022-10-21T07:59:49.778Z,82.57
2022-10-21T08:02:22.990Z,75.15
2022-10-21T08:04:49.922Z,78.50
2022-10-21T08:07:23.026Z,81.32
2022-10-21T08:09:49.931Z,74.28
2022-10-21T08:12:23.090Z,74.80
2022-10-21T08:14:50.621Z,76.47
2022-10-21T08:17:24.047Z,72.35
2022-10-21T08:19:50.940Z,75.90
2022-10-21T08:22:17.892Z,75.82
2022-10-21T08:24:51.034Z,77.78
2022-10-21T08:27:24.027Z,81.20
2022-10-21T08:29:57.083Z,83.38
2022-10-21T08:32:31.072Z,71.93
2022-10-21T08:34:58.081Z,72.57
2022-10-21T08:37:32.056Z,76.80
2022-10-21T08:40:05.070Z,77.85
2022-10-21T08:42:32.060Z,77.32
2022-10-21T08:45:08.066Z,79.70
2022-10-21T08:47:41.340Z,73.93
2022-10-21T08:50:25.067Z,85.00
2022-10-21T08:53:06.003Z,85.47
2022-10-21T08:55:45.122Z,79.55
2022-10-21T08:58:24.719Z,78.32
2022-10-21T09:01:12.075Z,77.60
2022-10-21T09:03:47.273Z,81.63
2022-10-21T09:06:28.152Z,78.30
2022-10-21T09:09:22.770Z,82.22
2022-10-21T09:12:01.078Z,71.97
2022-10-21T09:15:01.298Z,85.72
2022-10-21T09:17:50.114Z,69.07
2022-10-21T09:20:34.101Z,70.38
2022-10-21T09:23:28.806Z,74.50
2022-10-21T09:26:11.160Z,71.22
2022-10-21T09:28:38.349Z,69.35
2022-10-21T09:31:26.118Z,74.07
2022-10-21T09:33:57.582Z,77.18
2022-10-21T09:36:43.101Z,70.43
2022-10-21T09:39:32.380Z,73.25
2022-10-21T09:42:11.512Z,67.30
2022-10-21T09:44:45.305Z,74.15
2022-10-21T09:47:28.068Z,67.70
2022-10-21T09:50:13.308Z,62.20
2022-10-21T09:52:47.112Z,66.50
2022-10-21T09:55:14.382Z,68.55
2022-10-21T09:58:12.128Z,72.85
2022-10-21T10:00:49.442Z,64.78
2022-10-21T10:03:51.102Z,78.85
2022-10-21T10:06:36.427Z,82.13
2022-10-21T10:09:32.143Z,73.53
2022-10-21T10:12:17.109Z,74.10
2022-10-21T10:14:45.615Z,77.13
2022-10-21T10:17:42.148Z,66.40
2022-10-21T10:20:20.133Z,79.53
2022-10-21T10:23:06.125Z,75.68
2022-10-21T10:25:38.575Z,79.97
2022-10-21T10:28:26.113Z,77.65
2022-10-21T10:30:55.260Z,74.90
2022-10-21T10:33:38.205Z,77.22
2022-10-21T10:36:11.156Z,81.30
2022-10-21T10:39:15.240Z,74.30
2022-10-21T10:41:48.280Z,79.45
2022-10-21T10:44:42.257Z,74.72
2022-10-21T10:47:18.833Z,81.07
2022-10-21T10:49:52.217Z,77.75
2022-10-21T10:52:21.227Z,76.75
2022-10-21T10:54:55.104Z,72.60
2022-10-21T10:57:34.095Z,77.68
2022-10-21T11:00:29.127Z,66.55
2022-10-21T11:03:06.895Z,71.65
2022-10-21T11:05:51.159Z,78.20
2022-10-21T11:08:41.891Z,74.72
2022-10-21T11:11:32.522Z,73.57
2022-10-21T11:16:59.591Z,74.50
2022-10-21T11:20:01.147Z,74.63
2022-10-21T11:26:09.961Z,63.78
2022-10-21T11:28:50.139Z,71.07
2022-10-21T11:31:53.759Z,75.30
2022-10-21T11:34:40.957Z,71.53
2022-10-21T11:37:31.148Z,72.32
2022-10-21T11:40:23.796Z,72.30
2022-10-21T11:42:59.417Z,69.00
2022-10-21T11:45:41.352Z,75.68
2022-10-21T11:48:52.173Z,76.20
2022-10-21T11:51:46.570Z,72.15
2022-10-21T11:55:02.005Z,69.65
2022-10-21T11:57:49.915Z,65.70
2022-10-21T12:00:29.203Z,65.97
2022-10-21T12:04:26.202Z,69.35
2022-10-21T12:07:28.645Z,61.92
2022-10-21T12:10:46.229Z,70.95
2022-10-21T12:13:20.944Z,64.65
2022-10-21T12:16:21.205Z,70.20
2022-10-21T12:18:56.632Z,66.95
2022-10-21T12:21:36.172Z,68.45
2022-10-21T12:24:29.145Z,71.72
2022-10-21T12:27:41.359Z,67.22
2022-10-21T12:30:36.286Z,68.85
2022-10-21T12:33:47.210Z,71.43
2022-10-21T12:36:30.176Z,68.90
2022-10-21T12:39:00.065Z,70.82
2022-10-21T12:41:43.164Z,65.10
2022-10-21T12:44:26.756Z,70.72
2022-10-21T12:47:07.195Z,69.45
2022-10-21T12:49:41.198Z,75.75
2022-10-21T12:52:37.458Z,70.47
2022-10-21T12:55:12.385Z,65.78
2022-10-21T12:57:46.210Z,75.40
2022-10-21T13:00:35.582Z,73.00
2022-10-21T13:03:12.212Z,78.45
2022-10-21T13:05:39.084Z,80.40
2022-10-21T13:08:28.417Z,71.95
2022-10-21T13:11:04.690Z,74.60
2022-10-21T13:13:54.222Z,85.40
2022-10-21T13:16:27.218Z,75.55
2022-10-21T13:19:02.371Z,71.00
2022-10-21T13:21:49.327Z,72.90
2022-10-21T13:24:40.568Z,67.75
2022-10-21T13:27:40.245Z,75.38
2022-10-21T13:30:07.859Z,69.53
2022-10-21T13:32:45.249Z,73.32
2022-10-21T13:35:25.300Z,76.78
2022-10-21T13:38:10.278Z,67.60
2022-10-21T13:40:53.255Z,67.22
2022-10-21T13:43:40.243Z,70.10
2022-10-21T13:46:25.258Z,66.47
2022-10-21T13:48:52.338Z,74.75
2022-10-21T13:51:35.322Z,84.22
2022-10-21T13:54:15.652Z,74.80
2022-10-21T13:56:49.262Z,66.13
2022-10-21T13:59:26.830Z,69.88
2022-10-21T14:02:02.275Z,73.88
2022-10-21T14:04:31.291Z,63.55
2022-10-21T14:07:10.252Z,64.00
2022-10-21T14:09:46.109Z,67.93
2022-10-21T14:12:32.282Z,64.25
2022-10-21T14:15:14.265Z,68.53
2022-10-21T14:17:49.288Z,64.82
2022-10-21T14:20:22.700Z,74.68
2022-10-21T14:22:56.293Z,66.07
2022-10-21T14:25:23.254Z,70.43
2022-10-21T14:27:50.146Z,65.45
2022-10-21T14:30:33.334Z,73.57
2022-10-21T14:33:02.474Z,66.40
2022-10-21T14:35:37.272Z,62.40
2022-10-21T14:38:04.299Z,58.45
2022-10-21T14:40:41.285Z,66.68
2022-10-21T14:43:18.927Z,60.25
2022-10-21T14:45:57.293Z,68.90
2022-10-21T14:48:48.682Z,60.20
2022-10-21T14:51:23.292Z,59.63
2022-10-21T14:53:59.120Z,64.78
2022-10-21T14:56:43.299Z,59.72
2022-10-21T14:59:31.399Z,59.78
2022-10-21T15:02:05.275Z,66.07
2022-10-21T15:04:48.464Z,59.33
2022-10-21T15:07:38.285Z,57.42
2022-10-21T15:10:05.108Z,62.58
2022-10-21T15:12:53.352Z,60.80
2022-10-21T15:16:01.517Z,50.83
2022-10-21T15:18:32.725Z,57.13
2022-10-21T15:21:12.315Z,51.60
2022-10-21T15:23:43.813Z,56.47
2022-10-21T15:26:29.290Z,51.85
2022-10-21T15:28:56.179Z,58.13
2022-10-21T15:31:25.350Z,52.50
2022-10-21T15:34:00.267Z,53.75
2022-10-21T15:36:27.143Z,53.97
2022-10-21T15:39:01.022Z,52.75
2022-10-21T15:41:29.230Z,51.08
2022-10-21T15:44:08.332Z,50.05
2022-10-21T15:46:35.295Z,47.13
2022-10-21T15:49:19.328Z,48.42
2022-10-21T15:51:46.819Z,44.33
2022-10-21T15:54:20.310Z,47.17
2022-10-21T15:56:51.095Z,46.92
2022-10-21T15:59:31.354Z,48.28
2022-10-21T16:01:58.561Z,46.08
2022-10-21T16:04:32.350Z,46.92
2022-10-21T16:06:59.332Z,51.38
2022-10-21T16:09:34.610Z,46.67
2022-10-21T16:12:01.848Z,44.85
2022-10-21T16:14:42.753Z,50.03
2022-10-21T16:17:10.041Z,45.17
2022-10-21T16:19:37.661Z,42.88
2022-10-21T16:22:26.496Z,42.47
2022-10-21T16:24:55.703Z,40.65
2022-10-21T16:27:43.805Z,43.50
2022-10-21T16:30:23.094Z,41.10
2022-10-21T16:32:57.965Z,43.05
2022-10-21T16:35:25.256Z,41.60
2022-10-21T16:37:59.520Z,44.03
2022-10-21T16:40:33.047Z,43.67
2022-10-21T16:43:06.489Z,42.25
2022-10-21T16:45:33.795Z,43.55
2022-10-21T16:48:07.904Z,40.85
2022-10-21T16:50:41.085Z,39.05
2022-10-21T16:53:24.586Z,41.70
2022-10-21T16:55:51.827Z,42.35
2022-10-21T16:58:25.437Z,41.42
2022-10-21T17:00:52.571Z,40.50
2022-10-21T17:03:26.430Z,40.70
2022-10-21T17:06:01.680Z,43.53
2022-10-21T17:08:35.476Z,42.78
2022-10-21T17:11:04.461Z,40.40
2022-10-21T17:13:37.661Z,44.40
2022-10-21T17:16:05.713Z,40.53
2022-10-21T17:18:40.734Z,45.78
2022-10-21T17:21:09.812Z,45.33
2022-10-21T17:23:44.501Z,41.47
2022-10-21T17:26:12.087Z,41.47
2022-10-21T17:28:39.272Z,41.97
2022-10-21T17:31:12.412Z,39.65
2022-10-21T17:33:39.483Z,44.42
2022-10-21T17:36:13.437Z,39.40
2022-10-21T17:38:47.391Z,35.67
2022-10-21T17:41:22.374Z,42.53
2022-10-21T17:44:02.383Z,40.53
2022-10-21T17:46:35.432Z,44.58
2022-10-21T17:49:02.370Z,40.22
2022-10-21T17:51:35.387Z,39.63
2022-10-21T17:54:02.323Z,39.67
2022-10-21T17:56:35.456Z,38.45
2022-10-21T17:59:02.493Z,38.97
2022-10-21T18:01:36.485Z,40.83
2022-10-21T18:04:03.523Z,42.67
2022-10-21T18:06:36.619Z,36.20
2022-10-21T18:09:03.714Z,33.90
2022-10-21T18:11:30.816Z,34.78
2022-10-21T18:14:04.391Z,32.00
2022-10-21T18:16:31.411Z,32.42
2022-10-21T18:19:04.456Z,35.25
2022-10-21T18:21:31.369Z,35.15
2022-10-21T18:24:07.467Z,35.40
2022-10-21T18:26:37.047Z,34.58
2022-10-21T18:29:11.418Z,34.00
2022-10-21T18:31:38.451Z,36.45
2022-10-21T18:34:12.412Z,37.80
2022-10-21T18:36:45.450Z,36.88
2022-10-21T18:39:19.440Z,30.75
2022-10-21T18:41:46.308Z,29.55
2022-10-21T18:44:20.437Z,33.40
2022-10-21T18:46:49.252Z,32.53
2022-10-21T18:49:24.427Z,33.28
2022-10-21T18:51:51.370Z,37.08
2022-10-21T18:54:24.434Z,31.58
2022-10-21T18:56:51.272Z,30.50
2022-10-21T18:59:24.425Z,29.30
2022-10-21T19:01:51.344Z,32.75
2022-10-21T19:04:18.306Z,38.20
2022-10-21T19:06:52.517Z,37.58
2022-10-21T19:09:22.231Z,36.83
2022-10-21T19:11:55.697Z,36.33
2022-10-21T19:14:29.485Z,38.63
2022-10-21T19:16:56.564Z,39.83
2022-10-21T19:19:29.433Z,35.88
2022-10-21T19:21:56.333Z,32.95
2022-10-21T19:24:23.242Z,30.73
2022-10-21T19:27:02.445Z,30.00
2022-10-21T19:29:29.315Z,30.33
2022-10-21T19:32:02.504Z,29.33
2022-10-21T19:34:29.398Z,31.30
2022-10-21T19:37:02.527Z,29.48
2022-10-21T19:39:29.570Z,36.53
2022-10-21T19:42:02.502Z,35.67
2022-10-21T19:44:42.511Z,33.72
2022-10-21T19:47:15.461Z,31.98
2022-10-21T19:49:42.329Z,29.15
2022-10-21T19:52:15.486Z,34.05
2022-10-21T19:54:48.473Z,33.58
2022-10-21T19:57:15.383Z,29.67
2022-10-21T19:59:42.285Z,29.00
2022-10-21T20:02:17.596Z,29.23
2022-10-21T20:04:44.696Z,27.67
2022-10-21T20:07:11.676Z,28.55
2022-10-21T20:09:45.510Z,29.77
2022-10-21T20:12:18.508Z,27.98
2022-10-21T20:14:45.435Z,27.92
2022-10-21T20:17:18.575Z,25.98
2022-10-21T20:19:50.728Z,26.65
2022-10-21T20:22:24.538Z,28.08
2022-10-21T20:24:52.018Z,25.48
2022-10-21T20:27:18.940Z,26.45
2022-10-21T20:29:52.511Z,24.52
2022-10-21T20:32:19.515Z,27.85
2022-10-21T20:34:52.529Z,24.42
2022-10-21T20:37:26.250Z,26.00
2022-10-21T20:39:53.138Z,25.13
2022-10-21T20:42:26.507Z,27.02
2022-10-21T20:44:53.397Z,23.48
2022-10-21T20:47:30.122Z,24.92
2022-10-21T20:49:57.868Z,24.80
2022-10-21T20:52:31.539Z,25.77
2022-10-21T20:54:58.475Z,25.27
2022-10-21T20:57:31.536Z,27.27
2022-10-21T20:59:58.429Z,25.90
2022-10-21T21:02:31.507Z,28.88
2022-10-21T21:04:58.383Z,25.77
2022-10-21T21:07:31.583Z,26.25
2022-10-21T21:10:02.847Z,24.35
2022-10-21T21:12:36.601Z,27.50
2022-10-21T21:15:05.072Z,27.27
2022-10-21T21:17:38.669Z,29.50
2022-10-21T21:20:06.470Z,29.23
2022-10-21T21:22:42.996Z,24.90
2022-10-21T21:25:17.545Z,28.80
2022-10-21T21:27:44.595Z,26.30
2022-10-21T21:30:18.558Z,24.75
2022-10-21T21:32:45.512Z,23.98
2022-10-21T21:35:12.445Z,27.38
2022-10-21T21:37:45.555Z,24.95
2022-10-21T21:40:20.600Z,24.90
2022-10-21T21:42:47.560Z,26.38
2022-10-21T21:45:27.565Z,24.83
2022-10-21T21:48:01.640Z,26.65
2022-10-21T21:50:28.942Z,23.27
2022-10-21T21:53:02.598Z,23.65
2022-10-21T21:55:29.520Z,23.98
2022-10-21T21:58:02.597Z,24.50
2022-10-21T22:00:29.598Z,24.05
2022-10-21T22:03:03.563Z,23.48
2022-10-21T22:05:30.595Z,26.48
2022-10-21T22:08:07.571Z,26.13
2022-10-21T22:10:34.506Z,26.42
2022-10-21T22:13:07.578Z,24.55
2022-10-21T22:15:47.735Z,28.33
2022-10-21T22:18:23.875Z,25.42
2022-10-21T22:20:57.577Z,25.33
2022-10-21T22:23:30.597Z,25.65
2022-10-21T22:26:04.613Z,25.25
2022-10-21T22:28:31.603Z,24.92
2022-10-21T22:31:11.579Z,24.95
2022-10-21T22:33:38.787Z,28.08
2022-10-21T22:36:12.650Z,29.42
2022-10-21T22:38:39.568Z,27.20
2022-10-21T22:41:13.632Z,25.08
2022-10-21T22:43:40.728Z,25.90
2022-10-21T22:46:29.183Z,29.67
2022-10-21T22:49:01.590Z,29.85
2022-10-21T22:51:34.620Z,26.67
2022-10-21T22:54:01.665Z,26.50
2022-10-21T22:56:35.581Z,26.52
2022-10-21T22:59:02.547Z,26.05
2022-10-21T23:01:35.582Z,26.80
2022-10-21T23:04:02.453Z,27.58
2022-10-21T23:06:40.663Z,26.30
2022-10-21T23:09:07.710Z,24.15
2022-10-21T23:11:34.729Z,26.77
2022-10-21T23:14:09.096Z,26.73
2022-10-21T23:16:36.867Z,25.08
2022-10-21T23:19:04.794Z,25.60
2022-10-21T23:21:38.603Z,25.77
2022-10-21T23:24:06.043Z,25.17
2022-10-21T23:26:39.611Z,25.13
2022-10-21T23:29:06.527Z,25.10
2022-10-21T23:31:39.613Z,26.23
2022-10-21T23:34:12.620Z,24.70
2022-10-21T23:36:39.576Z,24.30
2022-10-21T23:39:12.637Z,25.02
2022-10-21T23:41:39.583Z,24.27
2022-10-21T23:44:06.689Z,27.48
2022-10-21T23:46:39.628Z,23.58
2022-10-21T23:49:13.648Z,25.38
2022-10-21T23:51:46.615Z,22.50
2022-10-21T23:54:13.485Z,22.27
2022-10-21T23:56:46.643Z,22.00
2022-10-21T23:59:19.662Z,23.13
